sensor_id;sensor_type;location;lat;lon;timestamp;pressure;altitude;pressure_sealevel;temperature;humidity
21826;BME280;11075;47.944;11.776;2022-10-31T00:03:52;95179.94;;;14.56;25.68
21826;BME280;11075;47.944;11.776;2022-10-31T00:06:23;95157.00;;;13.35;27.39
21826;BME280;11075;47.944;11.776;2022-10-31T00:08:53;95133.53;;;11.44;29.76
21826;BME280;11075;47.944;11.776;2022-10-31T00:11:23;95094.44;;;10.96;31.07
21826;BME280;11075;47.944;11.776;2022-10-31T00:13:51;95072.25;;;9.99;32.64
21826;BME280;11075;47.944;11.776;2022-10-31T00:16:23;95116.06;;;12.32;29.81
21826;BME280;11075;47.944;11.776;2022-10-31T00:18:51;95145.88;;;13.24;27.73
21826;BME280;11075;47.944;11.776;2022-10-31T00:21:19;95157.47;;;12.97;27.80
21826;BME280;11075;47.944;11.776;2022-10-31T00:23:46;95121.91;;;12.10;28.98
21826;BME280;11075;47.944;11.776;2022-10-31T00:26:13;95159.19;;;13.29;27.01
21826;BME280;11075;47.944;11.776;2022-10-31T00:28:40;95167.13;;;13.94;26.56
21826;BME280;11075;47.944;11.776;2022-10-31T00:31:10;95130.31;;;11.96;28.75
21826;BME280;11075;47.944;11.776;2022-10-31T00:33:38;95138.25;;;12.37;28.41
21826;BME280;11075;47.944;11.776;2022-10-31T00:36:11;95078.06;;;10.39;31.66
21826;BME280;11075;47.944;11.776;2022-10-31T00:38:41;95134.81;;;12.89;27.68
21826;BME280;11075;47.944;11.776;2022-10-31T00:41:11;95115.34;;;10.58;31.06
21826;BME280;11075;47.944;11.776;2022-10-31T00:43:43;95136.44;;;12.66;28.03
21826;BME280;11075;47.944;11.776;2022-10-31T00:46:11;95117.09;;;11.37;30.29
21826;BME280;11075;47.944;11.776;2022-10-31T00:48:40;95135.09;;;12.35;28.72
21826;BME280;11075;47.944;11.776;2022-10-31T00:51:08;95161.41;;;13.40;27.13
21826;BME280;11075;47.944;11.776;2022-10-31T00:53:35;95092.72;;;10.21;31.98
21826;BME280;11075;47.944;11.776;2022-10-31T00:56:03;95107.47;;;11.93;30.27
21826;BME280;11075;47.944;11.776;2022-10-31T00:58:30;95103.25;;;10.85;31.30
21826;BME280;11075;47.944;11.776;2022-10-31T01:00:57;95084.63;;;9.91;32.67
21826;BME280;11075;47.944;11.776;2022-10-31T01:03:29;95125.63;;;12.17;28.81
21826;BME280;11075;47.944;11.776;2022-10-31T01:05:57;95131.34;;;12.16;29.18
21826;BME280;11075;47.944;11.776;2022-10-31T01:08:25;95160.25;;;14.12;26.55
21826;BME280;11075;47.944;11.776;2022-10-31T01:11:13;95223.16;;;16.54;22.96
21826;BME280;11075;47.944;11.776;2022-10-31T01:13:41;95243.19;;;17.41;22.71
21826;BME280;11075;47.944;11.776;2022-10-31T01:16:12;95235.09;;;17.19;22.14
21826;BME280;11075;47.944;11.776;2022-10-31T01:18:39;95201.03;;;15.33;24.23
21826;BME280;11075;47.944;11.776;2022-10-31T01:23:38;95191.47;;;15.39;25.03
21826;BME280;11075;47.944;11.776;2022-10-31T01:26:08;95201.91;;;16.14;23.94
21826;BME280;11075;47.944;11.776;2022-10-31T01:28:44;95217.84;;;16.39;23.51
21826;BME280;11075;47.944;11.776;2022-10-31T01:31:11;95209.16;;;16.30;23.75
21826;BME280;11075;47.944;11.776;2022-10-31T01:33:39;95197.06;;;15.46;24.81
21826;BME280;11075;47.944;11.776;2022-10-31T01:36:22;95181.03;;;15.22;24.83
21826;BME280;11075;47.944;11.776;2022-10-31T01:38:53;95193.91;;;15.83;23.95
21826;BME280;11075;47.944;11.776;2022-10-31T01:41:23;95228.91;;;17.22;22.06
21826;BME280;11075;47.944;11.776;2022-10-31T01:43:57;95224.09;;;16.62;22.96
21826;BME280;11075;47.944;11.776;2022-10-31T01:46:33;95226.00;;;16.84;22.60
21826;BME280;11075;47.944;11.776;2022-10-31T01:49:04;95225.59;;;16.82;22.21
21826;BME280;11075;47.944;11.776;2022-10-31T01:51:36;95226.44;;;16.64;22.33
21826;BME280;11075;47.944;11.776;2022-10-31T01:54:08;95222.88;;;16.37;22.82
21826;BME280;11075;47.944;11.776;2022-10-31T01:56:39;95215.63;;;16.44;23.01
21826;BME280;11075;47.944;11.776;2022-10-31T01:59:11;95229.63;;;16.46;22.54
21826;BME280;11075;47.944;11.776;2022-10-31T02:01:42;95212.72;;;16.34;22.98
21826;BME280;11075;47.944;11.776;2022-10-31T02:04:09;95198.56;;;15.44;23.80
21826;BME280;11075;47.944;11.776;2022-10-31T02:06:59;95212.00;;;16.37;23.54
21826;BME280;11075;47.944;11.776;2022-10-31T02:09:30;95197.84;;;15.85;23.56
21826;BME280;11075;47.944;11.776;2022-10-31T02:11:59;95212.63;;;15.88;23.19
21826;BME280;11075;47.944;11.776;2022-10-31T02:14:27;95205.66;;;15.48;23.69
21826;BME280;11075;47.944;11.776;2022-10-31T02:16:56;95196.53;;;15.99;23.32
21826;BME280;11075;47.944;11.776;2022-10-31T02:19:48;95205.66;;;16.29;23.13
21826;BME280;11075;47.944;11.776;2022-10-31T02:22:34;95227.25;;;16.91;21.51
21826;BME280;11075;47.944;11.776;2022-10-31T02:30:40;95191.19;;;14.90;24.63
21826;BME280;11075;47.944;11.776;2022-10-31T02:33:35;95189.63;;;14.57;24.58
21826;BME280;11075;47.944;11.776;2022-10-31T02:36:26;95184.47;;;14.52;24.38
21826;BME280;11075;47.944;11.776;2022-10-31T02:39:18;95167.34;;;13.17;26.05
21826;BME280;11075;47.944;11.776;2022-10-31T02:42:05;95195.97;;;15.32;23.40
21826;BME280;11075;47.944;11.776;2022-10-31T02:44:41;95200.28;;;15.52;23.02
21826;BME280;11075;47.944;11.776;2022-10-31T02:47:15;95183.81;;;13.40;25.75
21826;BME280;11075;47.944;11.776;2022-10-31T02:52:33;95196.34;;;15.88;22.86
21826;BME280;11075;47.944;11.776;2022-10-31T02:55:12;95203.22;;;15.82;22.96
21826;BME280;11075;47.944;11.776;2022-10-31T02:57:41;95210.63;;;16.04;22.82
21826;BME280;11075;47.944;11.776;2022-10-31T03:00:09;95204.19;;;15.35;23.56
21826;BME280;11075;47.944;11.776;2022-10-31T03:05:35;95198.69;;;14.97;23.81
21826;BME280;11075;47.944;11.776;2022-10-31T03:11:03;95174.22;;;14.14;24.80
21826;BME280;11075;47.944;11.776;2022-10-31T03:16:16;95196.03;;;15.93;22.84
21826;BME280;11075;47.944;11.776;2022-10-31T03:19:08;95141.94;;;12.69;26.91
21826;BME280;11075;47.944;11.776;2022-10-31T03:21:45;95131.03;;;12.42;27.61
21826;BME280;11075;47.944;11.776;2022-10-31T03:24:15;95193.25;;;15.32;23.21
21826;BME280;11075;47.944;11.776;2022-10-31T03:26:46;95182.16;;;13.91;24.94
21826;BME280;11075;47.944;11.776;2022-10-31T03:29:16;95182.28;;;14.74;24.33
21826;BME280;11075;47.944;11.776;2022-10-31T03:31:49;95173.38;;;14.57;24.72
21826;BME280;11075;47.944;11.776;2022-10-31T03:34:20;95186.03;;;14.69;24.06
21826;BME280;11075;47.944;11.776;2022-10-31T03:36:50;95204.50;;;15.49;22.96
21826;BME280;11075;47.944;11.776;2022-10-31T03:39:20;95211.50;;;15.70;22.39
21826;BME280;11075;47.944;11.776;2022-10-31T03:41:54;95202.59;;;15.15;23.16
21826;BME280;11075;47.944;11.776;2022-10-31T03:44:27;95192.94;;;14.82;23.75
21826;BME280;11075;47.944;11.776;2022-10-31T03:46:59;95182.59;;;12.85;25.91
21826;BME280;11075;47.944;11.776;2022-10-31T03:49:28;95083.88;;;8.75;32.58
21826;BME280;11075;47.944;11.776;2022-10-31T03:54:45;95154.06;;;13.40;25.80
21826;BME280;11075;47.944;11.776;2022-10-31T04:00:05;95180.34;;;14.74;23.79
21826;BME280;11075;47.944;11.776;2022-10-31T04:02:51;95192.13;;;14.82;23.53
21826;BME280;11075;47.944;11.776;2022-10-31T04:05:21;95198.06;;;15.03;23.19
21826;BME280;11075;47.944;11.776;2022-10-31T04:07:53;95204.47;;;15.30;22.67
21826;BME280;11075;47.944;11.776;2022-10-31T04:10:22;95182.00;;;14.00;24.47
21826;BME280;11075;47.944;11.776;2022-10-31T04:13:02;95184.78;;;14.82;23.80
21826;BME280;11075;47.944;11.776;2022-10-31T04:15:38;95193.31;;;15.16;23.48
21826;BME280;11075;47.944;11.776;2022-10-31T04:18:06;95183.22;;;14.18;24.26
21826;BME280;11075;47.944;11.776;2022-10-31T04:20:40;95158.28;;;12.61;26.15
21826;BME280;11075;47.944;11.776;2022-10-31T04:23:28;95152.41;;;12.83;26.03
21826;BME280;11075;47.944;11.776;2022-10-31T04:25:55;95157.06;;;12.34;26.14
21826;BME280;11075;47.944;11.776;2022-10-31T04:28:23;95157.34;;;12.93;25.48
21826;BME280;11075;47.944;11.776;2022-10-31T04:30:50;95181.53;;;13.82;24.37
21826;BME280;11075;47.944;11.776;2022-10-31T04:33:18;95186.38;;;14.05;23.79
21826;BME280;11075;47.944;11.776;2022-10-31T04:35:46;95181.88;;;13.13;25.27
21826;BME280;11075;47.944;11.776;2022-10-31T04:38:13;95185.44;;;14.44;23.77
21826;BME280;11075;47.944;11.776;2022-10-31T04:40:42;95153.66;;;12.49;26.01
21826;BME280;11075;47.944;11.776;2022-10-31T04:43:15;95156.44;;;13.01;25.63
21826;BME280;11075;47.944;11.776;2022-10-31T04:45:43;95164.88;;;13.40;24.96
21826;BME280;11075;47.944;11.776;2022-10-31T04:48:12;95179.91;;;13.38;24.74
21826;BME280;11075;47.944;11.776;2022-10-31T04:50:41;95175.84;;;13.59;24.59
21826;BME280;11075;47.944;11.776;2022-10-31T04:53:09;95189.25;;;13.96;24.07
21826;BME280;11075;47.944;11.776;2022-10-31T04:55:49;95174.53;;;13.25;24.61
21826;BME280;11075;47.944;11.776;2022-10-31T04:58:19;95185.44;;;14.28;23.66
21826;BME280;11075;47.944;11.776;2022-10-31T05:00:47;95192.44;;;14.29;23.42
21826;BME280;11075;47.944;11.776;2022-10-31T05:03:14;95179.97;;;13.13;24.33
21826;BME280;11075;47.944;11.776;2022-10-31T05:05:41;95194.06;;;14.18;23.25
21826;BME280;11075;47.944;11.776;2022-10-31T05:08:08;95191.16;;;13.95;23.65
21826;BME280;11075;47.944;11.776;2022-10-31T05:10:36;95182.47;;;12.82;25.08
21826;BME280;11075;47.944;11.776;2022-10-31T05:13:03;95151.97;;;12.69;26.42
21826;BME280;11075;47.944;11.776;2022-10-31T05:16:09;95174.44;;;13.50;24.68
21826;BME280;11075;47.944;11.776;2022-10-31T05:19:05;95164.38;;;12.46;26.01
21826;BME280;11075;47.944;11.776;2022-10-31T05:21:51;95175.06;;;13.87;24.49
21826;BME280;11075;47.944;11.776;2022-10-31T05:24:18;95142.94;;;11.59;27.00
21826;BME280;11075;47.944;11.776;2022-10-31T05:26:49;95141.47;;;11.28;27.40
21826;BME280;11075;47.944;11.776;2022-10-31T05:29:16;95135.84;;;12.24;26.72
21826;BME280;11075;47.944;11.776;2022-10-31T05:31:43;95160.75;;;12.66;25.31
21826;BME280;11075;47.944;11.776;2022-10-31T05:34:23;95174.13;;;14.11;23.87
21826;BME280;11075;47.944;11.776;2022-10-31T05:37:19;95183.63;;;14.33;23.16
21826;BME280;11075;47.944;11.776;2022-10-31T05:39:46;95182.38;;;14.46;23.03
21826;BME280;11075;47.944;11.776;2022-10-31T05:42:15;95196.63;;;14.58;23.18
21826;BME280;11075;47.944;11.776;2022-10-31T05:44:43;95161.78;;;12.37;26.04
21826;BME280;11075;47.944;11.776;2022-10-31T05:47:22;95179.47;;;13.63;24.18
21826;BME280;11075;47.944;11.776;2022-10-31T05:49:55;95171.13;;;12.64;25.08
21826;BME280;11075;47.944;11.776;2022-10-31T05:52:43;95189.16;;;14.08;23.68
21826;BME280;11075;47.944;11.776;2022-10-31T05:55:33;95178.53;;;12.91;25.13
21826;BME280;11075;47.944;11.776;2022-10-31T05:58:12;95167.28;;;11.50;26.79
21826;BME280;11075;47.944;11.776;2022-10-31T06:00:47;95183.69;;;13.77;24.21
21826;BME280;11075;47.944;11.776;2022-10-31T06:03:15;95183.28;;;12.46;25.35
21826;BME280;11075;47.944;11.776;2022-10-31T06:05:46;95162.56;;;11.47;26.35
21826;BME280;11075;47.944;11.776;2022-10-31T06:08:20;95159.47;;;12.88;25.28
21826;BME280;11075;47.944;11.776;2022-10-31T06:10:48;95187.44;;;13.72;23.71
21826;BME280;11075;47.944;11.776;2022-10-31T06:13:21;95194.97;;;14.38;23.04
21826;BME280;11075;47.944;11.776;2022-10-31T06:16:02;95180.78;;;14.13;23.74
21826;BME280;11075;47.944;11.776;2022-10-31T06:18:34;95183.31;;;14.06;23.44
21826;BME280;11075;47.944;11.776;2022-10-31T06:21:01;95181.47;;;14.10;23.89
21826;BME280;11075;47.944;11.776;2022-10-31T06:23:28;95162.78;;;13.33;24.88
21826;BME280;11075;47.944;11.776;2022-10-31T06:26:15;95131.41;;;11.17;27.78
21826;BME280;11075;47.944;11.776;2022-10-31T06:28:42;95172.56;;;13.94;23.99
21826;BME280;11075;47.944;11.776;2022-10-31T06:31:21;95181.44;;;14.22;23.64
21826;BME280;11075;47.944;11.776;2022-10-31T06:33:47;95183.59;;;13.45;24.87
21826;BME280;11075;47.944;11.776;2022-10-31T06:36:14;95171.09;;;14.12;24.26
21826;BME280;11075;47.944;11.776;2022-10-31T06:38:41;95188.22;;;14.79;23.36
21826;BME280;11075;47.944;11.776;2022-10-31T06:41:10;95150.41;;;12.44;26.27
21826;BME280;11075;47.944;11.776;2022-10-31T06:43:41;95169.69;;;14.18;23.89
21826;BME280;11075;47.944;11.776;2022-10-31T06:46:29;95174.22;;;13.98;24.48
21826;BME280;11075;47.944;11.776;2022-10-31T06:49:34;95176.03;;;13.79;24.62
21826;BME280;11075;47.944;11.776;2022-10-31T06:52:04;95188.91;;;14.92;23.93
21826;BME280;11075;47.944;11.776;2022-10-31T06:54:31;95190.41;;;14.89;23.89
21826;BME280;11075;47.944;11.776;2022-10-31T06:56:59;95181.25;;;14.62;24.50
21826;BME280;11075;47.944;11.776;2022-10-31T06:59:27;95175.91;;;14.66;24.45
21826;BME280;11075;47.944;11.776;2022-10-31T07:02:00;95180.59;;;15.20;23.63
21826;BME280;11075;47.944;11.776;2022-10-31T07:04:27;95185.16;;;15.16;23.58
21826;BME280;11075;47.944;11.776;2022-10-31T07:06:55;95180.78;;;15.46;23.36
21826;BME280;11075;47.944;11.776;2022-10-31T07:09:22;95189.34;;;15.68;23.37
21826;BME280;11075;47.944;11.776;2022-10-31T07:11:51;95190.22;;;15.52;24.12
21826;BME280;11075;47.944;11.776;2022-10-31T07:14:18;95179.75;;;15.35;23.94
21826;BME280;11075;47.944;11.776;2022-10-31T07:16:50;95197.78;;;16.70;22.72
21826;BME280;11075;47.944;11.776;2022-10-31T07:19:23;95226.66;;;19.82;20.16
21826;BME280;11075;47.944;11.776;2022-10-31T07:21:49;95264.75;;;21.54;18.23
21826;BME280;11075;47.944;11.776;2022-10-31T07:24:16;95213.31;;;17.78;22.35
21826;BME280;11075;47.944;11.776;2022-10-31T07:26:45;95261.59;;;21.55;18.69
21826;BME280;11075;47.944;11.776;2022-10-31T07:29:14;95273.41;;;22.47;18.14
21826;BME280;11075;47.944;11.776;2022-10-31T07:31:41;95251.66;;;22.04;18.54
21826;BME280;11075;47.944;11.776;2022-10-31T07:34:14;95260.09;;;21.22;19.09
21826;BME280;11075;47.944;11.776;2022-10-31T07:36:59;95245.66;;;22.31;18.45
21826;BME280;11075;47.944;11.776;2022-10-31T07:39:26;95257.66;;;23.10;17.77
21826;BME280;11075;47.944;11.776;2022-10-31T07:41:53;95257.53;;;23.20;17.73
21826;BME280;11075;47.944;11.776;2022-10-31T07:44:20;95259.25;;;23.07;18.01
21826;BME280;11075;47.944;11.776;2022-10-31T07:47:05;95247.94;;;21.45;19.38
21826;BME280;11075;47.944;11.776;2022-10-31T07:49:50;95278.59;;;25.44;16.43
21826;BME280;11075;47.944;11.776;2022-10-31T07:52:36;95279.22;;;25.32;16.25
21826;BME280;11075;47.944;11.776;2022-10-31T07:55:26;95274.22;;;26.10;16.22
21826;BME280;11075;47.944;11.776;2022-10-31T07:58:01;95285.16;;;25.73;15.98
21826;BME280;11075;47.944;11.776;2022-10-31T08:00:31;95271.78;;;26.31;16.38
21826;BME280;11075;47.944;11.776;2022-10-31T08:03:07;95259.75;;;26.42;16.56
21826;BME280;11075;47.944;11.776;2022-10-31T08:05:52;95261.38;;;25.60;16.80
21826;BME280;11075;47.944;11.776;2022-10-31T08:08:32;95246.22;;;26.63;16.64
21826;BME280;11075;47.944;11.776;2022-10-31T08:11:04;95257.06;;;27.07;15.97
21826;BME280;11075;47.944;11.776;2022-10-31T08:13:31;95248.53;;;26.49;16.37
21826;BME280;11075;47.944;11.776;2022-10-31T08:15:58;95246.84;;;27.36;16.45
21826;BME280;11075;47.944;11.776;2022-10-31T08:18:32;95214.47;;;24.70;18.59
21826;BME280;11075;47.944;11.776;2022-10-31T08:21:00;95182.72;;;22.58;20.47
21826;BME280;11075;47.944;11.776;2022-10-31T08:23:26;95178.13;;;24.78;19.13
21826;BME280;11075;47.944;11.776;2022-10-31T08:25:55;95190.22;;;24.61;18.92
21826;BME280;11075;47.944;11.776;2022-10-31T08:28:23;95242.22;;;28.45;15.50
21826;BME280;11075;47.944;11.776;2022-10-31T08:30:52;95225.09;;;27.22;16.29
21826;BME280;11075;47.944;11.776;2022-10-31T08:33:38;95201.97;;;25.55;18.53
21826;BME280;11075;47.944;11.776;2022-10-31T08:36:24;95201.09;;;25.38;18.20
21826;BME280;11075;47.944;11.776;2022-10-31T08:39:04;95190.44;;;28.30;17.19
21826;BME280;11075;47.944;11.776;2022-10-31T08:41:31;95223.28;;;31.46;14.63
21826;BME280;11075;47.944;11.776;2022-10-31T08:44:00;95214.31;;;29.25;15.85
21826;BME280;11075;47.944;11.776;2022-10-31T08:46:27;95199.34;;;29.44;16.10
21826;BME280;11075;47.944;11.776;2022-10-31T08:48:56;95244.97;;;32.48;13.96
21826;BME280;11075;47.944;11.776;2022-10-31T08:51:22;95243.97;;;33.26;13.32
21826;BME280;11075;47.944;11.776;2022-10-31T08:53:52;95245.31;;;32.41;13.67
21826;BME280;11075;47.944;11.776;2022-10-31T08:56:34;95223.38;;;31.06;14.76
21826;BME280;11075;47.944;11.776;2022-10-31T08:59:05;95219.41;;;31.80;14.03
21826;BME280;11075;47.944;11.776;2022-10-31T09:01:55;95214.50;;;32.36;14.01
21826;BME280;11075;47.944;11.776;2022-10-31T09:04:22;95217.84;;;31.52;14.04
21826;BME280;11075;47.944;11.776;2022-10-31T09:06:50;95193.03;;;30.09;15.96
21826;BME280;11075;47.944;11.776;2022-10-31T09:09:37;95210.75;;;31.51;14.19
21826;BME280;11075;47.944;11.776;2022-10-31T09:12:04;95215.94;;;31.03;14.16
21826;BME280;11075;47.944;11.776;2022-10-31T09:14:49;95222.41;;;32.37;13.66
21826;BME280;11075;47.944;11.776;2022-10-31T09:17:27;95219.69;;;28.81;14.55
21826;BME280;11075;47.944;11.776;2022-10-31T09:20:16;95203.63;;;29.58;14.39
21826;BME280;11075;47.944;11.776;2022-10-31T09:22:42;95161.53;;;26.41;17.56
21826;BME280;11075;47.944;11.776;2022-10-31T09:25:12;95192.09;;;28.65;15.13
21826;BME280;11075;47.944;11.776;2022-10-31T09:27:41;95172.94;;;28.58;15.79
21826;BME280;11075;47.944;11.776;2022-10-31T09:30:10;95192.31;;;29.96;14.33
21826;BME280;11075;47.944;11.776;2022-10-31T09:32:38;95147.75;;;25.49;17.41
21826;BME280;11075;47.944;11.776;2022-10-31T09:35:05;95159.72;;;23.95;17.50
21826;BME280;11075;47.944;11.776;2022-10-31T09:37:32;95143.78;;;25.50;17.24
21826;BME280;11075;47.944;11.776;2022-10-31T09:39:59;95128.03;;;24.10;18.10
21826;BME280;11075;47.944;11.776;2022-10-31T09:42:42;95131.41;;;23.64;18.21
21826;BME280;11075;47.944;11.776;2022-10-31T09:45:28;95156.84;;;27.03;16.06
21826;BME280;11075;47.944;11.776;2022-10-31T09:51:14;95120.22;;;25.65;17.77
21826;BME280;11075;47.944;11.776;2022-10-31T09:53:56;95116.44;;;25.95;18.12
21826;BME280;11075;47.944;11.776;2022-10-31T09:56:27;95133.09;;;26.24;16.61
21826;BME280;11075;47.944;11.776;2022-10-31T09:59:02;95134.06;;;25.22;17.15
21826;BME280;11075;47.944;11.776;2022-10-31T10:01:37;95110.88;;;24.53;18.44
21826;BME280;11075;47.944;11.776;2022-10-31T10:11:18;95106.84;;;25.04;17.72
21826;BME280;11075;47.944;11.776;2022-10-31T10:16:23;95104.72;;;25.71;17.09
21826;BME280;11075;47.944;11.776;2022-10-31T10:21:39;95087.03;;;23.35;18.83
21826;BME280;11075;47.944;11.776;2022-10-31T10:27:05;95079.81;;;22.73;19.52
21826;BME280;11075;47.944;11.776;2022-10-31T10:29:44;95082.88;;;21.89;19.47
21826;BME280;11075;47.944;11.776;2022-10-31T10:32:23;95073.81;;;22.47;19.56
21826;BME280;11075;47.944;11.776;2022-10-31T10:34:55;95086.28;;;22.55;19.13
21826;BME280;11075;47.944;11.776;2022-10-31T10:37:32;95077.03;;;21.83;18.53
21826;BME280;11075;47.944;11.776;2022-10-31T10:40:25;95074.69;;;22.37;18.79
21826;BME280;11075;47.944;11.776;2022-10-31T10:46:19;95080.28;;;24.47;17.80
21826;BME280;11075;47.944;11.776;2022-10-31T10:49:16;95074.66;;;23.50;18.39
21826;BME280;11075;47.944;11.776;2022-10-31T10:51:54;95081.31;;;24.33;18.24
21826;BME280;11075;47.944;11.776;2022-10-31T10:58:01;95078.66;;;25.36;17.14
21826;BME280;11075;47.944;11.776;2022-10-31T11:00:47;95073.25;;;25.85;16.99
21826;BME280;11075;47.944;11.776;2022-10-31T11:03:18;95070.47;;;23.96;18.26
21826;BME280;11075;47.944;11.776;2022-10-31T11:05:57;95051.09;;;24.03;18.44
21826;BME280;11075;47.944;11.776;2022-10-31T11:08:33;95053.34;;;24.58;18.42
21826;BME280;11075;47.944;11.776;2022-10-31T11:11:03;95042.44;;;22.86;19.88
21826;BME280;11075;47.944;11.776;2022-10-31T11:13:31;95029.78;;;20.60;20.84
21826;BME280;11075;47.944;11.776;2022-10-31T11:16:06;95045.19;;;26.39;16.91
21826;BME280;11075;47.944;11.776;2022-10-31T11:18:37;95032.69;;;23.46;19.36
21826;BME280;11075;47.944;11.776;2022-10-31T11:21:05;95031.28;;;22.63;19.67
21826;BME280;11075;47.944;11.776;2022-10-31T11:23:33;95037.97;;;24.14;18.13
21826;BME280;11075;47.944;11.776;2022-10-31T11:26:03;95016.22;;;21.96;19.58
21826;BME280;11075;47.944;11.776;2022-10-31T11:28:32;95026.97;;;24.81;18.47
21826;BME280;11075;47.944;11.776;2022-10-31T11:31:11;95021.97;;;24.05;18.54
21826;BME280;11075;47.944;11.776;2022-10-31T11:33:47;95013.22;;;21.76;20.15
21826;BME280;11075;47.944;11.776;2022-10-31T11:38:43;95019.41;;;24.41;18.51
21826;BME280;11075;47.944;11.776;2022-10-31T11:44:10;95028.06;;;25.06;17.76
21826;BME280;11075;47.944;11.776;2022-10-31T11:46:41;95042.94;;;26.01;16.87
21826;BME280;11075;47.944;11.776;2022-10-31T11:49:18;95035.84;;;25.12;17.47
21826;BME280;11075;47.944;11.776;2022-10-31T11:51:52;95022.28;;;24.58;18.01
21826;BME280;11075;47.944;11.776;2022-10-31T11:54:32;95039.63;;;26.71;16.20
21826;BME280;11075;47.944;11.776;2022-10-31T11:56:59;95030.69;;;26.18;17.01
21826;BME280;11075;47.944;11.776;2022-10-31T11:59:29;95039.44;;;28.25;15.31
21826;BME280;11075;47.944;11.776;2022-10-31T12:02:00;95040.63;;;27.35;16.05
21826;BME280;11075;47.944;11.776;2022-10-31T12:07:02;95041.47;;;26.90;16.34
21826;BME280;11075;47.944;11.776;2022-10-31T12:09:33;95022.28;;;24.34;17.78
21826;BME280;11075;47.944;11.776;2022-10-31T12:20:38;95040.06;;;27.27;15.45
21826;BME280;11075;47.944;11.776;2022-10-31T12:26:01;95021.47;;;26.25;16.17
21826;BME280;11075;47.944;11.776;2022-10-31T12:28:41;95031.78;;;27.53;15.93
21826;BME280;11075;47.944;11.776;2022-10-31T12:32:21;95022.06;;;27.48;15.94
21826;BME280;11075;47.944;11.776;2022-10-31T12:34:56;95006.69;;;26.48;17.11
21826;BME280;11075;47.944;11.776;2022-10-31T12:57:37;94943.25;;;24.35;19.62
21826;BME280;11075;47.944;11.776;2022-10-31T13:00:17;94951.47;;;27.31;17.43
21826;BME280;11075;47.944;11.776;2022-10-31T13:03:15;94941.84;;;25.91;17.96
21826;BME280;11075;47.944;11.776;2022-10-31T13:05:53;94941.38;;;26.41;17.53
21826;BME280;11075;47.944;11.776;2022-10-31T13:09:08;94938.53;;;26.28;17.35
21826;BME280;11075;47.944;11.776;2022-10-31T13:11:43;94923.94;;;25.83;18.37
21826;BME280;11075;47.944;11.776;2022-10-31T13:14:26;94936.25;;;26.56;17.35
21826;BME280;11075;47.944;11.776;2022-10-31T13:16:56;94910.34;;;24.87;18.79
21826;BME280;11075;47.944;11.776;2022-10-31T13:19:29;94926.19;;;25.71;18.25
21826;BME280;11075;47.944;11.776;2022-10-31T13:27:39;94900.19;;;26.18;18.34
21826;BME280;11075;47.944;11.776;2022-10-31T13:30:18;94921.81;;;28.95;16.63
21826;BME280;11075;47.944;11.776;2022-10-31T13:35:51;94900.44;;;27.07;18.03
21826;BME280;11075;47.944;11.776;2022-10-31T13:43:59;94884.25;;;25.28;19.01
21826;BME280;11075;47.944;11.776;2022-10-31T13:46:35;94881.34;;;25.84;18.47
21826;BME280;11075;47.944;11.776;2022-10-31T13:49:04;94886.97;;;27.34;17.42
21826;BME280;11075;47.944;11.776;2022-10-31T13:51:33;94873.66;;;25.42;19.19
21826;BME280;11075;47.944;11.776;2022-10-31T13:54:21;94875.03;;;25.99;18.12
21826;BME280;11075;47.944;11.776;2022-10-31T13:56:50;94863.19;;;24.45;19.66
21826;BME280;11075;47.944;11.776;2022-10-31T13:59:23;94857.63;;;24.29;19.75
21826;BME280;11075;47.944;11.776;2022-10-31T14:01:53;94858.06;;;25.20;18.70
21826;BME280;11075;47.944;11.776;2022-10-31T14:04:26;94849.47;;;25.34;19.42
21826;BME280;11075;47.944;11.776;2022-10-31T14:09:28;94843.94;;;24.65;19.72
21826;BME280;11075;47.944;11.776;2022-10-31T14:11:57;94845.97;;;24.97;19.57
21826;BME280;11075;47.944;11.776;2022-10-31T14:14:30;94862.22;;;25.44;19.03
21826;BME280;11075;47.944;11.776;2022-10-31T14:17:00;94855.38;;;26.26;18.44
21826;BME280;11075;47.944;11.776;2022-10-31T14:19:27;94858.63;;;26.09;18.74
21826;BME280;11075;47.944;11.776;2022-10-31T14:21:54;94843.66;;;26.22;19.04
21826;BME280;11075;47.944;11.776;2022-10-31T14:27:03;94850.34;;;27.17;18.12
21826;BME280;11075;47.944;11.776;2022-10-31T14:29:32;94836.56;;;26.50;18.74
21826;BME280;11075;47.944;11.776;2022-10-31T14:40:13;94828.22;;;27.17;18.95
21826;BME280;11075;47.944;11.776;2022-10-31T14:51:16;94755.16;;;21.70;23.52
21826;BME280;11075;47.944;11.776;2022-10-31T14:53:53;94709.00;;;18.58;26.85
21826;BME280;11075;47.944;11.776;2022-10-31T14:56:26;94701.00;;;19.88;25.93
21826;BME280;11075;47.944;11.776;2022-10-31T14:58:57;94726.88;;;21.80;23.79
21826;BME280;11075;47.944;11.776;2022-10-31T15:01:35;94741.41;;;22.92;22.61
21826;BME280;11075;47.944;11.776;2022-10-31T15:04:13;94728.84;;;20.97;24.27
21826;BME280;11075;47.944;11.776;2022-10-31T15:07:23;94721.66;;;20.66;24.25
21826;BME280;11075;47.944;11.776;2022-10-31T15:10:02;94748.56;;;22.59;22.14
21826;BME280;11075;47.944;11.776;2022-10-31T15:12:33;94757.97;;;21.63;22.96
21826;BME280;11075;47.944;11.776;2022-10-31T15:15:18;94740.28;;;21.34;23.41
21826;BME280;11075;47.944;11.776;2022-10-31T15:17:53;94718.88;;;20.07;24.74
21826;BME280;11075;47.944;11.776;2022-10-31T15:20:24;94729.69;;;20.91;23.68
21826;BME280;11075;47.944;11.776;2022-10-31T15:22:55;94741.38;;;22.11;22.68
21826;BME280;11075;47.944;11.776;2022-10-31T15:25:25;94749.97;;;21.83;22.32
21826;BME280;11075;47.944;11.776;2022-10-31T15:27:52;94715.38;;;20.07;24.85
21826;BME280;11075;47.944;11.776;2022-10-31T15:30:25;94764.41;;;23.48;21.42
21826;BME280;11075;47.944;11.776;2022-10-31T15:32:52;94713.66;;;20.38;24.38